createdAt,value
2023-10-27T00:00:16.788Z,4.13
2023-10-27T00:02:44.520Z,5.10
2023-10-27T00:05:11.764Z,4.43
2023-10-27T00:07:39.638Z,7.33
2023-10-27T00:10:08.468Z,4.20
2023-10-27T00:12:35.888Z,5.13
2023-10-27T00:15:03.176Z,6.90
2023-10-27T00:17:31.575Z,5.63
2023-10-27T00:19:59.258Z,4.37
2023-10-27T00:22:26.807Z,4.90
2023-10-27T00:24:54.041Z,4.77
2023-10-27T00:27:21.498Z,4.13
2023-10-27T00:29:48.778Z,4.37
2023-10-27T00:32:16.084Z,3.67
2023-10-27T00:34:43.352Z,4.07
2023-10-27T00:37:10.775Z,4.23
2023-10-27T00:39:38.009Z,3.43
2023-10-27T00:42:05.465Z,4.53
2023-10-27T00:44:32.675Z,4.00
2023-10-27T00:47:00.010Z,3.50
2023-10-27T00:49:29.239Z,4.10
2023-10-27T00:51:56.597Z,4.70
2023-10-27T00:54:27.577Z,4.10
2023-10-27T00:56:56.562Z,3.40
2023-10-27T00:59:25.417Z,4.67
2023-10-27T01:01:52.816Z,3.67
2023-10-27T01:04:20.473Z,4.27
2023-10-27T01:06:47.726Z,4.73
2023-10-27T01:09:15.005Z,4.30
2023-10-27T01:11:42.312Z,3.80
2023-10-27T01:14:09.532Z,4.00
2023-10-27T01:16:36.849Z,3.57
2023-10-27T01:19:05.693Z,4.83
2023-10-27T01:21:33.113Z,4.00
2023-10-27T01:24:00.414Z,3.90
2023-10-27T01:26:27.625Z,3.43
2023-10-27T01:28:54.907Z,3.73
2023-10-27T01:31:23.514Z,4.73
2023-10-27T01:33:50.833Z,4.83
2023-10-27T01:36:18.078Z,3.10
2023-10-27T01:38:45.439Z,4.00
2023-10-27T01:41:12.721Z,5.03
2023-10-27T01:43:40.002Z,3.60
2023-10-27T01:46:07.269Z,3.30
2023-10-27T01:48:34.702Z,3.83
2023-10-27T01:51:01.941Z,4.33
2023-10-27T01:53:29.302Z,3.73
2023-10-27T01:55:56.539Z,4.97
2023-10-27T01:58:25.653Z,3.40
2023-10-27T02:00:52.947Z,3.97
2023-10-27T02:03:20.367Z,4.50
2023-10-27T02:05:48.998Z,3.67
2023-10-27T02:08:17.915Z,3.30
2023-10-27T02:10:45.327Z,3.30
2023-10-27T02:13:12.724Z,5.03
2023-10-27T02:15:40.002Z,3.80
2023-10-27T02:18:07.391Z,6.37
2023-10-27T02:20:34.643Z,4.60
2023-10-27T02:23:04.080Z,3.90
2023-10-27T02:25:31.349Z,3.60
2023-10-27T02:27:58.690Z,4.23
2023-10-27T02:30:26.022Z,3.63
2023-10-27T02:32:53.282Z,3.70
2023-10-27T02:35:23.258Z,4.03
2023-10-27T02:37:50.677Z,3.83
2023-10-27T02:40:17.972Z,4.40
2023-10-27T02:42:45.272Z,4.10
2023-10-27T02:45:15.983Z,4.23
2023-10-27T02:47:43.252Z,3.60
2023-10-27T02:50:10.849Z,3.97
2023-10-27T02:52:38.193Z,4.33
2023-10-27T02:55:05.667Z,3.63
2023-10-27T02:57:32.891Z,3.97
2023-10-27T03:00:01.472Z,4.50
2023-10-27T03:02:28.783Z,5.23
2023-10-27T03:04:57.377Z,4.33
2023-10-27T03:07:24.978Z,4.43
2023-10-27T03:09:52.281Z,4.17
2023-10-27T03:12:20.523Z,4.37
2023-10-27T03:14:47.825Z,3.83
2023-10-27T03:17:15.166Z,4.47
2023-10-27T03:19:42.517Z,3.93
2023-10-27T03:22:09.827Z,4.27
2023-10-27T03:24:37.157Z,5.83
2023-10-27T03:27:04.644Z,3.47
2023-10-27T03:29:32.090Z,3.97
2023-10-27T03:31:59.326Z,4.20
2023-10-27T03:34:26.673Z,5.17
2023-10-27T03:36:53.896Z,3.33
2023-10-27T03:39:21.168Z,4.50
2023-10-27T03:41:48.764Z,5.70
2023-10-27T03:44:16.062Z,5.40
2023-10-27T03:46:43.289Z,5.53
2023-10-27T03:49:10.710Z,3.63
2023-10-27T03:51:38.746Z,4.90
2023-10-27T03:54:06.064Z,6.30
2023-10-27T03:56:34.135Z,4.70
2023-10-27T03:59:01.506Z,5.47
2023-10-27T04:01:29.046Z,3.93
2023-10-27T04:03:57.031Z,5.40
2023-10-27T04:06:24.297Z,4.63
2023-10-27T04:08:51.634Z,4.97
2023-10-27T04:11:18.868Z,5.20
2023-10-27T04:13:46.085Z,4.83
2023-10-27T04:16:13.899Z,5.73
2023-10-27T04:18:41.180Z,5.13
2023-10-27T04:21:08.508Z,5.53
2023-10-27T04:23:35.700Z,4.20
2023-10-27T04:26:02.891Z,4.47
2023-10-27T04:28:30.274Z,4.33
2023-10-27T04:30:57.794Z,4.00
2023-10-27T04:33:26.358Z,4.47
2023-10-27T04:35:53.789Z,4.13
2023-10-27T04:38:21.050Z,4.13
2023-10-27T04:40:50.063Z,4.20
2023-10-27T04:43:17.274Z,4.40
2023-10-27T04:45:44.772Z,4.73
2023-10-27T04:48:12.217Z,5.03
2023-10-27T04:50:39.672Z,5.77
2023-10-27T04:53:06.867Z,6.20
2023-10-27T04:55:34.139Z,6.03
2023-10-27T04:58:01.391Z,4.93
2023-10-27T05:00:28.723Z,5.20
2023-10-27T05:02:55.967Z,6.37
2023-10-27T05:05:23.736Z,6.83
2023-10-27T05:07:51.143Z,6.63
2023-10-27T05:10:18.449Z,6.20
2023-10-27T05:12:45.733Z,6.53
2023-10-27T05:15:12.937Z,5.43
2023-10-27T05:17:40.207Z,7.43
2023-10-27T05:20:07.836Z,6.73
2023-10-27T05:22:35.182Z,6.30
2023-10-27T05:25:05.034Z,6.83
2023-10-27T05:27:32.404Z,5.67
2023-10-27T05:29:59.765Z,6.70
2023-10-27T05:32:27.575Z,9.50
2023-10-27T05:34:55.251Z,5.70
2023-10-27T05:37:23.054Z,6.00
2023-10-27T05:39:50.426Z,5.47
2023-10-27T05:42:17.665Z,6.10
2023-10-27T05:44:44.893Z,4.87
2023-10-27T05:47:12.173Z,5.73
2023-10-27T05:49:39.498Z,6.23
2023-10-27T05:52:06.936Z,6.20
2023-10-27T05:54:34.157Z,6.00
2023-10-27T05:57:01.596Z,6.73
2023-10-27T05:59:29.080Z,5.90
2023-10-27T06:04:26.894Z,8.10
2023-10-27T06:06:54.132Z,6.47
2023-10-27T06:09:21.901Z,6.23
2023-10-27T06:11:49.377Z,5.83
2023-10-27T06:14:16.845Z,8.60
2023-10-27T06:16:44.072Z,6.80
2023-10-27T06:19:11.434Z,8.63
2023-10-27T06:21:38.796Z,6.03
2023-10-27T06:24:08.356Z,7.57
2023-10-27T06:26:35.736Z,5.80
2023-10-27T06:29:02.961Z,8.07
2023-10-27T06:31:30.221Z,6.87
2023-10-27T06:33:57.569Z,8.33
2023-10-27T06:36:26.225Z,8.90
2023-10-27T06:38:53.436Z,8.37
2023-10-27T06:41:20.921Z,9.23
2023-10-27T06:43:49.733Z,9.23
2023-10-27T06:46:17.302Z,7.23
2023-10-27T06:48:44.571Z,8.73
2023-10-27T06:51:11.905Z,9.27
2023-10-27T06:53:39.110Z,8.67
2023-10-27T06:56:06.697Z,10.00
2023-10-27T06:58:34.073Z,8.63
2023-10-27T07:01:08.154Z,11.83
2023-10-27T07:03:36.926Z,10.63
2023-10-27T07:06:07.233Z,10.13
2023-10-27T07:08:34.700Z,8.63
2023-10-27T07:11:02.131Z,10.17
2023-10-27T07:13:30.028Z,12.47
2023-10-27T07:15:57.861Z,9.67
2023-10-27T07:18:25.174Z,10.93
2023-10-27T07:20:54.615Z,10.60
2023-10-27T07:23:22.017Z,9.67
2023-10-27T07:25:49.574Z,9.90
2023-10-27T07:28:17.369Z,10.00
2023-10-27T07:30:44.609Z,10.77
2023-10-27T07:33:12.807Z,10.27
2023-10-27T07:35:40.044Z,11.53
2023-10-27T07:38:07.423Z,10.53
2023-10-27T07:40:36.045Z,9.60
2023-10-27T07:43:03.625Z,11.27
2023-10-27T07:45:30.838Z,10.43
2023-10-27T07:47:59.916Z,12.23
2023-10-27T07:50:27.331Z,11.17
2023-10-27T07:52:54.697Z,9.93
2023-10-27T07:55:22.126Z,11.13
2023-10-27T07:57:49.494Z,10.17
2023-10-27T08:00:17.132Z,12.70
2023-10-27T08:02:44.914Z,12.23
2023-10-27T08:05:12.627Z,10.07
2023-10-27T08:07:39.936Z,12.40
2023-10-27T08:10:08.862Z,12.93
2023-10-27T08:12:36.808Z,12.47
2023-10-27T08:15:07.697Z,11.63
2023-10-27T08:17:35.603Z,13.37
2023-10-27T08:20:03.018Z,12.43
2023-10-27T08:22:31.562Z,12.40
2023-10-27T08:24:58.805Z,13.90
2023-10-27T08:27:26.139Z,13.53
2023-10-27T08:29:56.490Z,13.00
2023-10-27T08:32:24.213Z,15.37
2023-10-27T08:34:51.529Z,13.43
2023-10-27T08:37:18.988Z,15.67
2023-10-27T08:39:47.421Z,13.00
2023-10-27T08:42:14.837Z,12.13
2023-10-27T08:44:45.902Z,12.77
2023-10-27T08:47:14.045Z,12.97
2023-10-27T08:49:41.558Z,13.27
2023-10-27T08:52:09.880Z,12.60
2023-10-27T08:54:43.707Z,11.57
2023-10-27T08:57:11.154Z,12.07
2023-10-27T08:59:38.459Z,13.10
2023-10-27T09:02:06.534Z,10.40
2023-10-27T09:04:35.370Z,11.30
2023-10-27T09:07:02.888Z,11.37
2023-10-27T09:09:32.109Z,12.73
2023-10-27T09:11:59.983Z,12.47
2023-10-27T09:14:32.981Z,12.50
2023-10-27T09:17:12.891Z,13.23
2023-10-27T09:19:45.522Z,13.07
2023-10-27T09:22:17.277Z,11.13
2023-10-27T09:24:44.736Z,13.23
2023-10-27T09:27:14.309Z,13.70
2023-10-27T09:29:42.131Z,12.83
2023-10-27T09:32:28.626Z,12.27
2023-10-27T09:35:14.270Z,14.40
2023-10-27T09:37:45.123Z,11.90
2023-10-27T09:40:14.148Z,13.40
2023-10-27T09:42:42.246Z,12.83
2023-10-27T09:45:10.351Z,12.70
2023-10-27T09:47:46.419Z,12.47
2023-10-27T09:50:15.299Z,13.07
2023-10-27T09:52:46.510Z,12.43
2023-10-27T09:55:16.128Z,14.50
2023-10-27T09:57:45.813Z,12.80
2023-10-27T10:00:28.689Z,14.60
2023-10-27T10:02:57.287Z,15.67
2023-10-27T10:05:24.808Z,14.80
2023-10-27T10:07:56.662Z,14.40
2023-10-27T10:22:43.671Z,14.20
2023-10-27T10:25:17.233Z,15.83
2023-10-27T10:28:20.240Z,13.13
2023-10-27T10:30:48.784Z,13.67
2023-10-27T10:33:16.080Z,13.40
2023-10-27T10:35:43.963Z,13.93
2023-10-27T10:38:23.214Z,15.40
2023-10-27T10:40:54.674Z,13.20
2023-10-27T10:43:30.498Z,16.17
2023-10-27T10:45:58.725Z,14.70
2023-10-27T10:48:26.699Z,13.00
2023-10-27T10:50:56.675Z,14.83
2023-10-27T10:53:27.443Z,11.93
2023-10-27T10:55:59.144Z,13.43
2023-10-27T10:58:27.324Z,12.47
2023-10-27T11:00:56.681Z,13.20
2023-10-27T11:03:24.824Z,11.33
2023-10-27T11:05:59.839Z,13.23
2023-10-27T11:08:36.804Z,11.30
2023-10-27T11:11:08.427Z,10.60
2023-10-27T11:13:41.926Z,10.50
2023-10-27T11:16:15.463Z,12.13
2023-10-27T11:18:42.849Z,11.87
2023-10-27T11:21:16.779Z,10.27
2023-10-27T11:23:44.338Z,10.50
2023-10-27T11:26:12.336Z,10.67
2023-10-27T11:28:41.130Z,11.17
2023-10-27T11:31:18.466Z,11.77
2023-10-27T11:34:04.886Z,10.13
2023-10-27T11:36:36.595Z,11.03
2023-10-27T11:39:17.035Z,10.73
2023-10-27T11:41:45.031Z,7.60
2023-10-27T11:44:12.264Z,6.93
2023-10-27T11:46:45.755Z,6.10
2023-10-27T11:49:13.301Z,6.73
2023-10-27T11:51:40.553Z,4.57
2023-10-27T11:54:07.884Z,2.27
2023-10-27T11:56:35.170Z,1.80
2023-10-27T11:59:02.426Z,1.57
2023-10-27T12:01:29.702Z,1.80
2023-10-27T12:03:57.149Z,1.50
2023-10-27T12:06:24.430Z,1.83
2023-10-27T12:08:51.656Z,1.90
2023-10-27T12:11:18.989Z,2.70
2023-10-27T12:13:46.439Z,2.00
2023-10-27T12:16:14.290Z,1.90
2023-10-27T12:18:41.607Z,3.53
2023-10-27T12:21:08.825Z,1.97
2023-10-27T12:23:36.057Z,1.70
2023-10-27T12:26:05.028Z,1.93
2023-10-27T12:28:32.412Z,2.33
2023-10-27T12:31:00.570Z,2.13
2023-10-27T12:33:27.933Z,3.77
2023-10-27T12:35:56.126Z,2.60
2023-10-27T12:38:23.755Z,3.83
2023-10-27T12:40:51.134Z,1.57
2023-10-27T12:43:18.421Z,1.87
2023-10-27T12:45:46.211Z,1.87
2023-10-27T12:48:13.516Z,2.20
2023-10-27T12:50:42.572Z,1.67
2023-10-27T12:53:09.847Z,1.57
2023-10-27T12:55:37.200Z,1.67
2023-10-27T12:58:05.240Z,2.07
2023-10-27T13:00:35.382Z,2.30
2023-10-27T13:03:03.030Z,2.07
2023-10-27T13:05:30.337Z,2.20
2023-10-27T13:07:58.555Z,2.70
2023-10-27T13:10:26.012Z,4.23
2023-10-27T13:13:01.472Z,4.43
2023-10-27T13:15:29.276Z,5.07
2023-10-27T13:17:56.934Z,5.40
2023-10-27T13:20:24.240Z,5.40
2023-10-27T13:22:51.419Z,5.13
2023-10-27T13:25:19.062Z,5.33
2023-10-27T13:27:49.276Z,4.50
2023-10-27T13:30:17.106Z,5.60
2023-10-27T13:32:47.223Z,4.77
2023-10-27T13:35:14.845Z,5.07
2023-10-27T13:37:43.969Z,5.10
2023-10-27T13:40:11.636Z,5.30
2023-10-27T13:42:39.026Z,5.03
2023-10-27T13:45:06.479Z,5.10
2023-10-27T13:47:34.059Z,6.67
2023-10-27T13:50:01.482Z,5.13
2023-10-27T13:52:28.775Z,5.30
2023-10-27T13:54:56.066Z,5.87
2023-10-27T13:57:23.284Z,5.47
2023-10-27T13:59:50.712Z,6.00
2023-10-27T14:02:17.934Z,6.20
2023-10-27T14:04:45.478Z,6.00
2023-10-27T14:07:12.961Z,7.37
2023-10-27T14:09:41.162Z,6.93
2023-10-27T14:12:08.545Z,5.53
2023-10-27T14:14:35.813Z,7.30
2023-10-27T14:17:03.095Z,9.20
2023-10-27T14:19:30.376Z,6.20
2023-10-27T14:21:58.065Z,6.30
2023-10-27T14:24:25.796Z,7.00
2023-10-27T14:26:53.279Z,6.80
2023-10-27T14:29:22.362Z,6.80
2023-10-27T14:31:49.678Z,8.17
2023-10-27T14:34:17.059Z,7.50
2023-10-27T14:36:44.470Z,6.67
2023-10-27T14:39:14.871Z,7.73
2023-10-27T14:41:42.787Z,7.00
2023-10-27T14:44:12.418Z,6.90
2023-10-27T14:46:40.637Z,7.13
2023-10-27T14:49:08.060Z,7.60
2023-10-27T14:51:38.292Z,7.60
2023-10-27T14:54:05.589Z,7.30
2023-10-27T14:56:32.864Z,7.33
2023-10-27T14:59:00.140Z,8.33
2023-10-27T15:01:27.420Z,8.57
2023-10-27T15:03:54.756Z,8.50
2023-10-27T15:06:22.384Z,8.90
2023-10-27T15:08:49.723Z,10.47
2023-10-27T15:11:17.455Z,8.13
2023-10-27T15:13:44.966Z,9.10
2023-10-27T15:16:14.337Z,9.43
2023-10-27T15:18:43.066Z,8.40
2023-10-27T15:21:11.689Z,8.60
2023-10-27T15:23:39.129Z,9.57
2023-10-27T15:26:07.260Z,9.10
2023-10-27T15:28:34.580Z,9.93
2023-10-27T15:33:50.120Z,9.43
2023-10-27T15:36:17.471Z,8.97
2023-10-27T15:36:49.076Z,8.73
2023-10-27T15:38:44.824Z,9.50
2023-10-27T15:41:24.965Z,9.37
2023-10-27T15:43:52.295Z,11.37
2023-10-27T15:46:19.659Z,11.57
2023-10-27T15:48:47.003Z,12.43
2023-10-27T15:51:15.562Z,11.40
2023-10-27T15:53:45.163Z,12.07
2023-10-27T15:56:12.489Z,12.53
2023-10-27T15:58:40.982Z,12.83
2023-10-27T16:01:13.447Z,13.37
2023-10-27T16:03:40.879Z,12.70
2023-10-27T16:06:08.229Z,14.97
2023-10-27T16:08:35.653Z,13.87
2023-10-27T16:11:03.623Z,15.93
2023-10-27T16:13:30.934Z,16.10
2023-10-27T16:15:58.150Z,15.97
2023-10-27T16:18:25.617Z,16.73
2023-10-27T16:20:52.956Z,16.87
2023-10-27T16:23:20.727Z,17.63
2023-10-27T16:25:48.163Z,17.13
2023-10-27T16:28:15.423Z,17.30
2023-10-27T16:30:42.720Z,18.57
2023-10-27T16:33:10.022Z,17.10
2023-10-27T16:35:37.422Z,16.50
2023-10-27T16:38:05.995Z,18.67
2023-10-27T16:40:36.553Z,18.40
2023-10-27T16:43:06.423Z,17.10
2023-10-27T16:45:34.235Z,16.87
2023-10-27T16:48:01.555Z,16.37
2023-10-27T16:50:30.071Z,16.73
2023-10-27T16:52:57.370Z,19.40
2023-10-27T16:55:24.645Z,17.47
2023-10-27T16:57:51.956Z,17.93
2023-10-27T17:00:19.234Z,17.73
2023-10-27T17:02:46.720Z,16.23
2023-10-27T17:05:16.586Z,17.67
2023-10-27T17:07:44.092Z,18.87
2023-10-27T17:10:12.618Z,17.07
2023-10-27T17:12:40.203Z,19.37
2023-10-27T17:15:07.647Z,18.53
2023-10-27T17:17:35.059Z,20.37
2023-10-27T17:20:16.338Z,19.23
2023-10-27T17:22:45.852Z,19.63
2023-10-27T17:25:13.236Z,21.37
2023-10-27T17:27:40.491Z,18.77
2023-10-27T17:30:10.913Z,19.70
2023-10-27T17:32:41.942Z,21.00
2023-10-27T17:35:09.589Z,19.77
2023-10-27T17:37:37.806Z,21.13
2023-10-27T17:40:05.430Z,22.20
2023-10-27T17:42:34.722Z,21.00
2023-10-27T17:45:02.486Z,19.97
2023-10-27T17:47:29.828Z,22.23
2023-10-27T17:49:57.811Z,21.07
2023-10-27T17:52:25.306Z,21.97
2023-10-27T17:54:52.604Z,23.40
2023-10-27T17:57:20.870Z,22.20
2023-10-27T17:59:48.603Z,21.13
2023-10-27T18:02:16.030Z,21.83
2023-10-27T18:04:44.837Z,25.77
2023-10-27T18:07:13.674Z,23.73
2023-10-27T18:09:41.609Z,24.33
2023-10-27T18:12:09.013Z,22.13
2023-10-27T18:14:36.263Z,27.77
2023-10-27T18:17:04.387Z,26.73
2023-10-27T18:19:31.662Z,25.30
2023-10-27T18:21:58.953Z,25.70
2023-10-27T18:24:26.179Z,26.07
2023-10-27T18:26:55.423Z,23.30
2023-10-27T18:29:22.653Z,25.83
2023-10-27T18:31:49.896Z,24.50
2023-10-27T18:34:18.037Z,27.47
2023-10-27T18:36:45.787Z,24.13
2023-10-27T18:39:13.106Z,25.93
2023-10-27T18:41:40.370Z,26.63
2023-10-27T18:44:11.623Z,26.73
2023-10-27T18:46:40.400Z,25.43
2023-10-27T18:49:07.688Z,26.77
2023-10-27T18:51:38.357Z,25.07
2023-10-27T18:54:06.902Z,25.50
2023-10-27T18:56:34.139Z,26.63
2023-10-27T18:59:01.557Z,24.77
2023-10-27T19:01:31.003Z,26.60
2023-10-27T19:04:00.199Z,27.43
2023-10-27T19:06:27.930Z,27.33
2023-10-27T19:08:55.228Z,25.83
2023-10-27T19:11:24.015Z,26.63
2023-10-27T19:13:52.697Z,26.20
2023-10-27T19:16:20.557Z,23.40
2023-10-27T19:18:49.352Z,25.60
2023-10-27T19:21:18.135Z,25.70
2023-10-27T19:23:47.110Z,23.83
2023-10-27T19:26:18.661Z,23.70
2023-10-27T19:28:46.919Z,22.23
2023-10-27T19:31:15.536Z,20.47
2023-10-27T19:33:44.212Z,21.90
2023-10-27T19:36:14.819Z,20.50
2023-10-27T19:38:42.910Z,20.83
2023-10-27T19:41:12.566Z,23.50
2023-10-27T19:43:41.227Z,25.10
2023-10-27T19:46:09.705Z,23.70
2023-10-27T19:48:37.523Z,24.43
2023-10-27T19:51:06.365Z,26.33
2023-10-27T19:53:35.329Z,29.13
2023-10-27T19:56:02.739Z,25.83
2023-10-27T19:58:30.147Z,26.73
2023-10-27T20:00:57.379Z,29.40
2023-10-27T20:03:24.982Z,25.67
2023-10-27T20:05:53.399Z,27.83
2023-10-27T20:08:20.932Z,29.13
2023-10-27T20:10:48.815Z,30.00
2023-10-27T20:13:16.770Z,28.23
2023-10-27T20:15:46.540Z,30.17
2023-10-27T20:18:14.187Z,27.77
2023-10-27T20:20:47.591Z,28.90
2023-10-27T20:23:15.920Z,28.30
2023-10-27T20:25:44.230Z,28.47
2023-10-27T20:28:11.998Z,28.17
2023-10-27T20:30:39.880Z,29.63
2023-10-27T20:33:08.270Z,25.13
2023-10-27T20:35:35.510Z,26.43
2023-10-27T20:38:03.211Z,24.83
2023-10-27T20:40:30.683Z,24.83
2023-10-27T20:43:00.859Z,27.97
2023-10-27T20:45:29.569Z,24.20
2023-10-27T20:47:56.950Z,24.60
2023-10-27T20:50:24.638Z,23.63
2023-10-27T20:52:51.902Z,23.33
2023-10-27T20:55:19.765Z,23.23
2023-10-27T20:57:47.716Z,23.73
2023-10-27T21:00:16.727Z,22.93
2023-10-27T21:02:44.475Z,24.13
2023-10-27T21:05:12.072Z,22.50
2023-10-27T21:07:39.787Z,22.67
2023-10-27T21:10:07.627Z,23.27
2023-10-27T21:12:35.051Z,23.77
2023-10-27T21:15:03.708Z,22.03
2023-10-27T21:17:31.460Z,24.13
2023-10-27T21:19:59.934Z,23.37
2023-10-27T21:22:30.263Z,22.23
2023-10-27T21:24:57.553Z,25.03
2023-10-27T21:27:24.810Z,23.57
2023-10-27T21:29:52.983Z,20.07
2023-10-27T21:32:20.722Z,21.60
2023-10-27T21:34:48.341Z,20.23
2023-10-27T21:37:15.630Z,20.43
2023-10-27T21:39:48.014Z,20.07
2023-10-27T21:42:18.732Z,20.10
2023-10-27T21:44:48.893Z,18.50
2023-10-27T21:47:16.794Z,20.77
2023-10-27T21:49:47.149Z,19.63
2023-10-27T21:52:16.095Z,20.00
2023-10-27T21:54:43.356Z,17.50
2023-10-27T21:57:11.820Z,16.70
2023-10-27T21:59:42.183Z,18.43
2023-10-27T22:02:11.303Z,19.10
2023-10-27T22:04:38.877Z,20.63
2023-10-27T22:07:08.131Z,18.80
2023-10-27T22:09:37.599Z,15.83
2023-10-27T22:12:07.843Z,16.37
2023-10-27T22:14:36.679Z,15.50
2023-10-27T22:17:05.137Z,14.33
2023-10-27T22:19:32.897Z,14.77
2023-10-27T22:22:00.137Z,14.63
2023-10-27T22:24:27.501Z,13.47
2023-10-27T22:26:56.638Z,13.60
2023-10-27T22:29:24.050Z,10.53
2023-10-27T22:31:51.547Z,13.53
2023-10-27T22:34:18.830Z,13.07
2023-10-27T22:36:46.641Z,12.47
2023-10-27T22:39:13.937Z,12.07
2023-10-27T22:41:41.239Z,10.80
2023-10-27T22:44:08.711Z,11.83
2023-10-27T22:46:36.204Z,10.83
2023-10-27T22:49:03.683Z,12.77
2023-10-27T22:51:31.585Z,10.97
2023-10-27T22:53:58.822Z,11.13
2023-10-27T22:56:26.108Z,8.23
2023-10-27T22:58:53.408Z,9.90
2023-10-27T23:01:20.762Z,9.83
2023-10-27T23:03:48.018Z,8.70
2023-10-27T23:06:15.497Z,8.90
2023-10-27T23:08:43.076Z,10.23
2023-10-27T23:11:15.042Z,8.83
2023-10-27T23:13:44.550Z,10.20
2023-10-27T23:16:12.082Z,8.40
2023-10-27T23:18:41.949Z,8.43
2023-10-27T23:21:09.635Z,7.97
2023-10-27T23:23:37.523Z,8.27
2023-10-27T23:26:08.432Z,7.53
2023-10-27T23:28:36.021Z,6.13
2023-10-27T23:31:10.190Z,8.60
2023-10-27T23:33:41.049Z,7.47
2023-10-27T23:36:09.585Z,5.67
2023-10-27T23:38:39.500Z,4.20
2023-10-27T23:41:07.443Z,4.83
2023-10-27T23:43:34.903Z,4.93
2023-10-27T23:46:02.809Z,5.53
2023-10-27T23:48:30.380Z,4.90
2023-10-27T23:51:03.675Z,5.30
2023-10-27T23:53:31.884Z,6.20
2023-10-27T23:56:00.536Z,5.10
2023-10-27T23:58:28.241Z,4.93
